Time;durP1;ratioP1;P1;durP2;ratioP2;P2;SDS_P1;SDS_P2;PMS_P1;PMS_P2;Temp;Humidity;BMP_temperature;BMP_pressure;BME280_temperature;BME280_humidity;BME280_pressure;Samples;Min_cycle;Max_cycle;Signal;HPM_P1;HPM_P2
2023/07/20 00:00:53;;;;;;;7.37;3.57;;;17.60;99.90;;;;;;4986321;28;20197;-75
2023/07/20 00:03:22;;;;;;;5.83;3.20;;;17.60;99.90;;;;;;4988372;28;20210;-74
2023/07/20 00:05:49;;;;;;;4.60;3.50;;;17.60;99.90;;;;;;4987788;28;20830;-74
2023/07/20 00:08:16;;;;;;;3.60;2.90;;;17.60;99.90;;;;;;5006701;28;20421;-74
2023/07/20 00:10:42;;;;;;;3.83;3.43;;;17.60;99.90;;;;;;5006625;28;20474;-75
2023/07/20 00:13:08;;;;;;;3.97;3.10;;;17.60;99.90;;;;;;4973747;28;20425;-75
2023/07/20 00:15:34;;;;;;;7.70;3.53;;;17.60;99.90;;;;;;4968890;28;20543;-74
2023/07/20 00:17:59;;;;;;;7.33;3.40;;;17.60;99.90;;;;;;4988689;28;20902;-75
2023/07/20 00:20:25;;;;;;;3.10;2.80;;;17.70;99.90;;;;;;4986524;28;20234;-75
2023/07/20 00:22:51;;;;;;;3.13;2.73;;;17.70;99.90;;;;;;4991051;28;20181;-74
2023/07/20 00:25:18;;;;;;;4.43;2.27;;;17.70;99.90;;;;;;4994889;28;20206;-75
2023/07/20 00:27:44;;;;;;;3.40;3.10;;;17.80;99.90;;;;;;5022197;28;20404;-74
2023/07/20 00:30:10;;;;;;;7.30;3.10;;;17.90;99.90;;;;;;5006332;28;20467;-74
2023/07/20 00:32:35;;;;;;;3.80;2.60;;;17.90;99.90;;;;;;4987824;28;20185;-73
2023/07/20 00:35:01;;;;;;;2.80;2.50;;;17.90;99.90;;;;;;4995264;28;20461;-75
2023/07/20 00:37:29;;;;;;;4.03;2.30;;;18.00;99.90;;;;;;4985991;28;20186;-75
2023/07/20 00:39:54;;;;;;;4.03;2.60;;;18.00;99.90;;;;;;4984726;28;20442;-74
2023/07/20 00:42:20;;;;;;;3.23;2.23;;;18.00;99.90;;;;;;4969046;28;20419;-74
2023/07/20 00:44:45;;;;;;;4.17;2.47;;;18.00;99.90;;;;;;4984681;28;20594;-75
2023/07/20 00:47:12;;;;;;;2.70;2.43;;;18.00;99.90;;;;;;4982972;28;20187;-74
2023/07/20 00:49:37;;;;;;;3.60;2.80;;;18.00;99.90;;;;;;4984387;28;20210;-75
2023/07/20 00:52:06;;;;;;;3.57;2.97;;;17.90;99.90;;;;;;4985246;28;20442;-74
2023/07/20 00:54:32;;;;;;;4.20;2.90;;;17.90;99.90;;;;;;4969637;28;20268;-75
2023/07/20 00:57:00;;;;;;;5.17;4.03;;;17.80;99.90;;;;;;5002929;28;20413;-74
2023/07/20 00:59:26;;;;;;;3.97;2.73;;;17.70;99.90;;;;;;4992670;28;20444;-75
2023/07/20 01:01:52;;;;;;;5.37;3.10;;;17.70;99.90;;;;;;4991971;28;20420;-73
2023/07/20 01:04:18;;;;;;;6.53;3.57;;;17.60;99.90;;;;;;5008785;28;20198;-75
2023/07/20 01:07:16;;;;;;;3.90;3.47;;;17.50;99.90;;;;;;4992544;28;20229;-74
2023/07/20 01:09:48;;;;;;;2.80;2.53;;;17.50;99.90;;;;;;4961897;28;20452;-75
2023/07/20 01:12:26;;;;;;;2.97;2.30;;;17.50;99.90;;;;;;5008901;28;20431;-74
2023/07/20 01:14:52;;;;;;;3.37;3.07;;;17.50;99.90;;;;;;4988043;28;20460;-74
2023/07/20 01:17:17;;;;;;;3.63;2.67;;;17.60;99.90;;;;;;5011084;28;20417;-74
2023/07/20 01:19:43;;;;;;;2.90;2.50;;;17.60;99.90;;;;;;4976976;28;20470;-75
2023/07/20 01:22:27;;;;;;;3.73;2.60;;;17.70;99.90;;;;;;5008560;28;20197;-73
2023/07/20 01:25:21;;;;;;;5.90;2.33;;;17.70;99.90;;;;;;4997222;28;20190;-74
2023/07/20 01:28:14;;;;;;;4.07;2.10;;;17.70;99.90;;;;;;4999489;28;20434;-76
2023/07/20 01:30:55;;;;;;;3.80;2.50;;;17.60;99.90;;;;;;5008903;28;20546;-73
2023/07/20 01:33:23;;;;;;;2.93;2.27;;;17.60;99.90;;;;;;5008901;28;20468;-74
2023/07/20 01:35:54;;;;;;;4.53;2.30;;;17.60;99.90;;;;;;4975240;28;20524;-74
2023/07/20 01:38:21;;;;;;;3.90;2.63;;;17.50;99.90;;;;;;5010106;28;20418;-75
2023/07/20 01:40:49;;;;;;;3.30;2.30;;;17.40;99.90;;;;;;4992585;28;20441;-74
2023/07/20 01:43:15;;;;;;;3.20;2.90;;;17.40;99.90;;;;;;5009145;28;20457;-76
2023/07/20 01:45:40;;;;;;;4.00;2.63;;;17.40;99.90;;;;;;4974858;28;20426;-75
2023/07/20 01:48:07;;;;;;;4.30;2.80;;;17.40;99.90;;;;;;5008626;28;20429;-74
2023/07/20 01:50:34;;;;;;;4.30;2.10;;;17.30;99.90;;;;;;4991990;28;20222;-74
2023/07/20 01:53:00;;;;;;;2.73;2.30;;;17.30;99.90;;;;;;4991218;28;20413;-76
2023/07/20 01:55:26;;;;;;;4.17;2.90;;;17.30;99.90;;;;;;5008211;28;20767;-75
2023/07/20 01:57:52;;;;;;;4.43;3.27;;;17.30;99.90;;;;;;5007100;28;20454;-74
2023/07/20 02:00:21;;;;;;;2.70;2.20;;;17.20;99.90;;;;;;5007576;28;20213;-76
2023/07/20 02:02:46;;;;;;;3.00;2.50;;;17.20;99.90;;;;;;4990965;28;20404;-74
2023/07/20 02:05:12;;;;;;;3.17;2.60;;;17.20;99.90;;;;;;5008669;28;20492;-74
2023/07/20 02:07:38;;;;;;;4.20;2.50;;;17.20;99.90;;;;;;4995128;28;20260;-74
2023/07/20 02:10:05;;;;;;;4.70;2.87;;;17.20;99.90;;;;;;4992849;28;20293;-75
2023/07/20 02:12:30;;;;;;;3.87;2.90;;;17.20;99.90;;;;;;5007021;28;20423;-73
2023/07/20 02:14:56;;;;;;;4.63;3.10;;;17.20;99.90;;;;;;5006728;28;20451;-75
2023/07/20 02:17:22;;;;;;;4.20;3.20;;;17.10;99.90;;;;;;4987109;28;20450;-74
2023/07/20 02:19:52;;;;;;;4.20;2.67;;;17.00;99.90;;;;;;4970234;28;20203;-74
2023/07/20 02:22:18;;;;;;;5.83;3.00;;;16.90;99.90;;;;;;4988461;28;20184;-75
2023/07/20 02:24:43;;;;;;;4.57;2.60;;;16.80;99.90;;;;;;4992606;28;20423;-73
2023/07/20 02:27:09;;;;;;;3.70;2.47;;;16.70;99.90;;;;;;4975141;28;20264;-74
2023/07/20 02:29:35;;;;;;;3.60;3.10;;;16.60;99.90;;;;;;5008410;28;20204;-74
2023/07/20 02:32:02;;;;;;;4.50;2.60;;;16.60;99.90;;;;;;5005902;28;20253;-75
2023/07/20 02:34:27;;;;;;;7.37;3.80;;;16.40;99.90;;;;;;5007893;28;20475;-75
2023/07/20 02:36:56;;;;;;;5.07;4.10;;;16.40;99.90;;;;;;4972352;28;20498;-74
2023/07/20 02:39:21;;;;;;;3.77;3.13;;;16.40;99.90;;;;;;4988454;28;20519;-74
2023/07/20 02:41:47;;;;;;;4.13;2.93;;;16.30;99.90;;;;;;5003577;28;20432;-74
2023/07/20 02:44:14;;;;;;;5.30;3.87;;;16.30;99.90;;;;;;4970861;28;20412;-74
2023/07/20 02:46:40;;;;;;;4.43;3.50;;;16.30;99.90;;;;;;4989894;28;20266;-75
2023/07/20 02:49:06;;;;;;;5.40;3.47;;;16.20;99.90;;;;;;4990225;28;20521;-74
2023/07/20 02:51:32;;;;;;;5.30;3.63;;;16.10;99.90;;;;;;4996877;28;20440;-73
2023/07/20 02:53:57;;;;;;;4.87;4.13;;;16.10;99.90;;;;;;4989844;28;20464;-73
2023/07/20 02:56:23;;;;;;;5.17;3.60;;;16.10;99.90;;;;;;5009288;28;20191;-74
2023/07/20 02:58:49;;;;;;;4.63;3.83;;;16.10;99.90;;;;;;5010133;28;20491;-74
2023/07/20 03:01:14;;;;;;;4.40;3.20;;;16.00;99.90;;;;;;5006826;28;20199;-75
2023/07/20 03:03:46;;;;;;;4.80;3.73;;;16.00;99.90;;;;;;5009480;28;20172;-75
2023/07/20 03:06:15;;;;;;;5.30;4.10;;;16.00;99.90;;;;;;5011298;28;20611;-74
2023/07/20 03:08:41;;;;;;;4.20;3.10;;;16.00;99.90;;;;;;5009544;28;20567;-74
2023/07/20 03:11:07;;;;;;;4.43;3.20;;;16.00;99.90;;;;;;5007960;28;20445;-77
2023/07/20 03:13:34;;;;;;;4.77;3.10;;;15.90;99.90;;;;;;5006934;28;20827;-74
2023/07/20 03:16:00;;;;;;;3.30;3.00;;;15.90;99.90;;;;;;5005529;28;20484;-74
2023/07/20 03:18:28;;;;;;;5.40;3.10;;;15.90;99.90;;;;;;4986675;28;20211;-75
2023/07/20 03:20:54;;;;;;;4.30;3.00;;;15.90;99.90;;;;;;4986170;28;20501;-73
2023/07/20 03:23:19;;;;;;;5.10;3.37;;;16.00;99.90;;;;;;4991100;28;20451;-75
2023/07/20 03:25:45;;;;;;;4.60;2.73;;;16.00;99.90;;;;;;4973048;28;20191;-75
2023/07/20 03:28:11;;;;;;;6.13;3.70;;;16.00;99.90;;;;;;4989430;28;20483;-75
2023/07/20 03:30:36;;;;;;;5.97;3.90;;;16.00;99.90;;;;;;5007000;28;20196;-76
2023/07/20 03:33:04;;;;;;;8.33;3.90;;;15.90;99.90;;;;;;5006526;28;20211;-76
2023/07/20 03:35:31;;;;;;;7.17;3.67;;;15.90;99.90;;;;;;5005991;28;20274;-75
2023/07/20 03:37:57;;;;;;;5.57;3.73;;;16.00;99.90;;;;;;4989040;28;20431;-74
2023/07/20 03:40:22;;;;;;;3.90;2.83;;;16.00;99.90;;;;;;4986354;28;20231;-76
2023/07/20 03:42:48;;;;;;;4.60;3.07;;;16.00;99.90;;;;;;4970694;28;20403;-74
2023/07/20 03:45:14;;;;;;;3.10;2.60;;;16.10;99.90;;;;;;4985844;28;20301;-75
2023/07/20 03:47:40;;;;;;;3.83;2.60;;;16.10;99.90;;;;;;4987440;28;20227;-74
2023/07/20 03:50:06;;;;;;;4.67;2.80;;;16.10;99.90;;;;;;4986496;28;20451;-75
2023/07/20 03:52:32;;;;;;;4.50;3.47;;;16.20;99.90;;;;;;4993482;28;20199;-75
2023/07/20 03:54:57;;;;;;;4.77;2.90;;;16.20;99.90;;;;;;4989936;28;20459;-74
2023/07/20 03:57:23;;;;;;;4.60;3.10;;;16.30;99.90;;;;;;4995579;28;20226;-74
2023/07/20 03:59:49;;;;;;;7.47;3.67;;;16.30;99.90;;;;;;4975546;28;20619;-74
2023/07/20 04:02:14;;;;;;;6.07;3.97;;;16.40;99.90;;;;;;4990671;28;20184;-73
2023/07/20 04:04:42;;;;;;;7.57;4.30;;;16.40;99.90;;;;;;4985222;28;20181;-73
2023/07/20 04:07:07;;;;;;;8.40;4.43;;;16.40;99.90;;;;;;4985868;28;20467;-73
2023/07/20 04:09:33;;;;;;;4.83;3.10;;;16.50;99.90;;;;;;4988983;28;20196;-74
2023/07/20 04:11:59;;;;;;;6.40;3.60;;;16.50;99.90;;;;;;4988690;28;20247;-75
2023/07/20 04:14:25;;;;;;;5.20;3.00;;;16.50;99.90;;;;;;4988667;28;20203;-74
2023/07/20 04:16:51;;;;;;;8.03;3.90;;;16.60;99.90;;;;;;4989031;28;20422;-74
2023/07/20 04:19:17;;;;;;;8.03;4.60;;;16.60;99.90;;;;;;4988282;28;20211;-73
2023/07/20 04:21:43;;;;;;;12.00;3.67;;;16.70;99.90;;;;;;4986302;28;20208;-74
2023/07/20 04:24:09;;;;;;;4.63;3.63;;;16.70;99.90;;;;;;4985526;28;20409;-74
2023/07/20 04:26:36;;;;;;;5.50;3.10;;;16.70;99.90;;;;;;4971970;28;20499;-75
2023/07/20 04:29:03;;;;;;;6.80;4.50;;;16.80;99.90;;;;;;4974609;28;20415;-74
2023/07/20 04:31:35;;;;;;;5.13;4.13;;;16.80;99.90;;;;;;4989483;28;20434;-76
2023/07/20 04:34:01;;;;;;;7.00;3.30;;;16.80;99.90;;;;;;4985275;28;20464;-74
2023/07/20 04:36:27;;;;;;;13.30;5.83;;;16.90;99.90;;;;;;4955709;28;20435;-75
2023/07/20 04:38:53;;;;;;;6.03;4.13;;;16.90;99.90;;;;;;4970174;28;20502;-74
2023/07/20 04:41:20;;;;;;;5.00;3.60;;;16.90;99.90;;;;;;4983882;28;20420;-74
2023/07/20 04:43:48;;;;;;;30.47;4.27;;;17.00;99.90;;;;;;5004708;28;20422;-75
2023/07/20 04:46:19;;;;;;;6.83;4.17;;;17.00;99.90;;;;;;5007124;28;20410;-74
2023/07/20 04:48:45;;;;;;;10.67;6.97;;;17.00;99.90;;;;;;4989527;28;20396;-74
2023/07/20 04:51:11;;;;;;;7.87;4.60;;;17.00;99.90;;;;;;5007076;28;20524;-76
2023/07/20 04:53:38;;;;;;;7.90;3.23;;;17.10;99.90;;;;;;4986546;28;20500;-74
2023/07/20 04:56:05;;;;;;;8.40;4.37;;;17.10;99.90;;;;;;4986809;28;20491;-76
2023/07/20 04:58:31;;;;;;;7.43;4.13;;;17.10;99.90;;;;;;4970214;28;20437;-75
2023/07/20 05:00:57;;;;;;;6.37;3.90;;;17.20;99.90;;;;;;4989389;28;20232;-75
2023/07/20 05:03:23;;;;;;;3.20;2.90;;;17.20;99.90;;;;;;4972774;28;20194;-74
2023/07/20 05:05:48;;;;;;;7.60;4.50;;;17.30;99.90;;;;;;4986391;28;20188;-74
2023/07/20 05:08:16;;;;;;;9.33;4.50;;;17.40;99.90;;;;;;4986663;28;20416;-75
2023/07/20 05:10:41;;;;;;;7.50;4.40;;;17.40;99.90;;;;;;4989909;28;20443;-74
2023/07/20 05:13:08;;;;;;;5.97;3.80;;;17.50;99.90;;;;;;4989587;28;20430;-77
2023/07/20 05:15:34;;;;;;;7.77;4.63;;;17.50;99.90;;;;;;4988040;28;20896;-72
2023/07/20 05:18:02;;;;;;;7.33;5.10;;;17.50;99.90;;;;;;4972363;28;20185;-74
2023/07/20 05:20:28;;;;;;;5.50;4.10;;;17.60;99.90;;;;;;4987926;28;20441;-76
2023/07/20 05:22:54;;;;;;;7.07;4.50;;;17.60;99.90;;;;;;4990507;28;20174;-77
2023/07/20 05:25:22;;;;;;;8.30;4.93;;;17.60;99.90;;;;;;4993465;28;20432;-76
2023/07/20 05:27:48;;;;;;;6.17;4.87;;;17.60;99.90;;;;;;4990236;28;20197;-76
2023/07/20 05:30:14;;;;;;;7.80;5.00;;;17.60;99.90;;;;;;4987055;28;20454;-76
2023/07/20 05:32:39;;;;;;;8.33;5.33;;;17.70;99.90;;;;;;4966681;28;20190;-75
2023/07/20 05:35:06;;;;;;;6.50;4.40;;;17.80;99.90;;;;;;4983416;28;20220;-77
2023/07/20 05:37:31;;;;;;;13.07;6.63;;;17.80;99.90;;;;;;4992761;28;20545;-76
2023/07/20 05:39:57;;;;;;;11.10;5.70;;;17.80;99.90;;;;;;4992258;28;20466;-75
2023/07/20 05:42:23;;;;;;;7.77;6.10;;;17.80;99.90;;;;;;4992185;28;20607;-76
2023/07/20 05:44:49;;;;;;;8.33;6.80;;;17.80;99.90;;;;;;4994354;28;20440;-76
2023/07/20 05:47:15;;;;;;;13.20;7.70;;;17.70;99.90;;;;;;4994412;28;20177;-76
2023/07/20 05:49:41;;;;;;;7.60;6.13;;;17.80;99.90;;;;;;4994951;28;20452;-75
2023/07/20 05:52:07;;;;;;;7.60;5.60;;;17.80;99.90;;;;;;5013069;28;20429;-75
2023/07/20 05:54:33;;;;;;;6.90;5.17;;;17.90;99.90;;;;;;5015127;28;20453;-76
2023/07/20 05:57:01;;;;;;;13.20;8.70;;;18.00;99.90;;;;;;4981685;28;20177;-75
2023/07/20 05:59:34;;;;;;;10.50;7.50;;;18.20;99.90;;;;;;4968427;28;20491;-76
2023/07/20 06:02:00;;;;;;;17.57;11.50;;;18.30;99.90;;;;;;4999300;28;20529;-77
2023/07/20 06:04:25;;;;;;;12.40;9.33;;;18.30;99.90;;;;;;4999311;28;20182;-76
2023/07/20 06:06:54;;;;;;;12.33;8.90;;;18.30;99.90;;;;;;4998807;28;20219;-76
2023/07/20 06:09:19;;;;;;;12.50;8.87;;;18.50;99.90;;;;;;4996750;28;20536;-77
2023/07/20 06:11:48;;;;;;;16.23;11.90;;;18.60;99.90;;;;;;4997729;28;20170;-74
2023/07/20 06:14:15;;;;;;;11.23;7.10;;;18.70;99.90;;;;;;4998836;28;20462;-77
2023/07/20 06:16:40;;;;;;;9.97;7.43;;;18.90;99.90;;;;;;4996720;28;20425;-76
2023/07/20 06:19:06;;;;;;;11.13;9.67;;;18.90;99.90;;;;;;4997449;28;20430;-78
2023/07/20 06:21:33;;;;;;;8.10;7.30;;;18.90;99.90;;;;;;4981342;28;20181;-77
2023/07/20 06:23:59;;;;;;;9.73;7.40;;;18.90;99.90;;;;;;5000394;28;20163;-79
2023/07/20 06:26:24;;;;;;;13.57;7.93;;;19.00;99.90;;;;;;4984416;28;20457;-77
2023/07/20 06:28:54;;;;;;;9.73;7.10;;;19.10;99.90;;;;;;5000556;28;20430;-77
2023/07/20 06:31:21;;;;;;;9.00;7.10;;;19.20;99.90;;;;;;5000749;28;20243;-77
2023/07/20 06:33:48;;;;;;;11.00;9.07;;;19.20;99.90;;;;;;5001201;28;20457;-78
2023/07/20 06:36:19;;;;;;;11.77;10.57;;;19.30;99.90;;;;;;5000078;28;20414;-78
2023/07/20 06:38:46;;;;;;;15.73;12.07;;;19.10;99.90;;;;;;4998766;28;20403;-76
2023/07/20 06:41:12;;;;;;;13.53;9.80;;;18.80;99.90;;;;;;4999014;28;20427;-78
2023/07/20 06:43:41;;;;;;;9.20;7.37;;;18.80;99.90;;;;;;4993738;28;20390;-76
2023/07/20 06:46:08;;;;;;;10.70;7.93;;;19.00;99.90;;;;;;4992203;28;20419;-76
2023/07/20 06:48:36;;;;;;;10.23;8.80;;;19.60;99.90;;;;;;4992828;28;20408;-76
2023/07/20 06:51:05;;;;;;;12.97;9.57;;;20.00;99.30;;;;;;4995370;28;20475;-76
2023/07/20 06:53:32;;;;;;;10.07;7.80;;;20.30;95.80;;;;;;5005479;28;20426;-79
2023/07/20 06:55:59;;;;;;;10.40;8.40;;;20.50;94.30;;;;;;4997815;28;20458;-77
2023/07/20 06:58:25;;;;;;;12.43;9.60;;;20.40;93.50;;;;;;5000302;28;20420;-77
2023/07/20 07:00:51;;;;;;;8.57;7.80;;;20.20;94.10;;;;;;4994413;28;20447;-75
2023/07/20 07:03:19;;;;;;;10.10;7.03;;;20.00;94.90;;;;;;4992401;28;20402;-77
2023/07/20 07:05:45;;;;;;;7.23;6.53;;;19.80;96.00;;;;;;5009330;28;20431;-77
2023/07/20 07:08:11;;;;;;;9.83;6.10;;;19.70;97.40;;;;;;4997113;28;20428;-77
2023/07/20 07:10:37;;;;;;;15.70;8.57;;;19.60;97.80;;;;;;4994248;28;20455;-77
2023/07/20 07:13:04;;;;;;;11.30;8.83;;;19.60;97.20;;;;;;4996491;28;20419;-78
2023/07/20 07:15:29;;;;;;;12.33;8.53;;;19.50;98.00;;;;;;4993622;28;20273;-76
2023/07/20 07:17:56;;;;;;;10.93;8.10;;;19.50;98.30;;;;;;5008975;28;20423;-76
2023/07/20 07:20:26;;;;;;;7.50;6.80;;;19.60;99.20;;;;;;4979185;28;20283;-77
2023/07/20 07:22:52;;;;;;;6.13;5.13;;;19.70;98.60;;;;;;4997286;28;20400;-77
2023/07/20 07:25:19;;;;;;;6.50;5.23;;;19.80;97.60;;;;;;4999454;28;20435;-78
2023/07/20 07:27:48;;;;;;;9.37;8.47;;;19.80;96.70;;;;;;5015324;28;20404;-78
2023/07/20 07:30:14;;;;;;;9.10;7.67;;;19.80;95.60;;;;;;4982635;28;20469;-77
2023/07/20 07:32:41;;;;;;;9.63;7.13;;;19.70;96.70;;;;;;5015327;28;20447;-75
2023/07/20 07:35:07;;;;;;;9.67;7.63;;;19.60;98.10;;;;;;4998634;28;20438;-77
2023/07/20 07:37:36;;;;;;;6.20;5.23;;;19.70;98.40;;;;;;4996820;28;20402;-79
2023/07/20 07:40:04;;;;;;;7.67;6.00;;;19.90;97.70;;;;;;4992805;28;20211;-76
2023/07/20 07:42:32;;;;;;;6.80;4.80;;;20.10;95.30;;;;;;4994859;28;20459;-78
2023/07/20 07:45:00;;;;;;;6.83;4.90;;;20.20;94.40;;;;;;4979006;28;20423;-77
2023/07/20 07:47:26;;;;;;;13.00;7.50;;;20.30;93.10;;;;;;4946727;28;20424;-76
2023/07/20 07:49:55;;;;;;;7.63;5.80;;;20.30;92.70;;;;;;4962182;28;20223;-80
2023/07/20 07:52:21;;;;;;;8.70;6.73;;;20.40;93.30;;;;;;4945640;28;20435;-77
2023/07/20 07:54:47;;;;;;;6.73;6.03;;;20.80;92.00;;;;;;4974110;28;20463;-76
2023/07/20 07:57:13;;;;;;;7.87;6.17;;;21.00;85.40;;;;;;4995687;28;20178;-79
2023/07/20 07:59:42;;;;;;;6.80;5.50;;;21.30;82.10;;;;;;5011925;28;20446;-78
2023/07/20 08:02:08;;;;;;;8.90;5.57;;;21.50;77.30;;;;;;4998241;28;20426;-78
2023/07/20 08:04:35;;;;;;;5.27;4.30;;;21.50;73.20;;;;;;4981832;28;20411;-77
2023/07/20 08:07:02;;;;;;;5.07;4.57;;;21.30;74.80;;;;;;4998309;28;20447;-79
2023/07/20 08:09:31;;;;;;;8.73;5.80;;;21.10;75.50;;;;;;5014929;28;20528;-78
2023/07/20 08:11:58;;;;;;;6.30;5.70;;;20.90;76.40;;;;;;4995970;28;20409;-77
2023/07/20 08:14:23;;;;;;;8.00;6.70;;;20.90;76.00;;;;;;4965255;28;20554;-78
2023/07/20 08:16:49;;;;;;;7.57;5.77;;;20.70;77.60;;;;;;4981975;28;20465;-79
2023/07/20 08:19:15;;;;;;;4.80;4.33;;;20.70;79.40;;;;;;4981046;28;20218;-79
2023/07/20 08:21:41;;;;;;;9.07;5.23;;;20.70;79.30;;;;;;4996054;28;20182;-77
2023/07/20 08:24:08;;;;;;;3.80;3.47;;;20.90;78.60;;;;;;5013370;28;20175;-77
2023/07/20 08:26:34;;;;;;;7.17;4.13;;;21.10;77.20;;;;;;4981291;28;20431;-76
2023/07/20 08:29:00;;;;;;;4.00;3.37;;;21.30;75.80;;;;;;4997172;28;20446;-77
2023/07/20 08:31:28;;;;;;;3.93;3.10;;;21.30;69.70;;;;;;4997060;28;20210;-77
2023/07/20 08:33:56;;;;;;;6.90;3.70;;;21.10;68.00;;;;;;4977454;28;20192;-77
2023/07/20 08:36:23;;;;;;;5.53;3.43;;;21.20;68.10;;;;;;4962615;28;20412;-76
2023/07/20 08:38:50;;;;;;;3.50;2.93;;;21.20;68.70;;;;;;4963599;28;20513;-77
2023/07/20 08:41:20;;;;;;;5.27;3.67;;;21.30;68.80;;;;;;4958545;28;20426;-78
2023/07/20 08:43:47;;;;;;;3.50;3.20;;;21.50;68.20;;;;;;4982877;28;20426;-77
2023/07/20 08:46:14;;;;;;;5.33;3.67;;;21.50;65.20;;;;;;4998846;28;20381;-78
2023/07/20 08:48:43;;;;;;;3.47;2.70;;;21.40;63.90;;;;;;4981044;28;20421;-79
2023/07/20 08:51:11;;;;;;;4.23;3.10;;;21.40;63.20;;;;;;4982943;28;20436;-77
2023/07/20 08:53:37;;;;;;;5.57;3.83;;;21.30;64.00;;;;;;5014615;28;20414;-77
2023/07/20 08:56:06;;;;;;;6.43;3.07;;;21.30;64.40;;;;;;4998357;28;20455;-78
2023/07/20 08:58:35;;;;;;;5.50;3.23;;;21.50;64.30;;;;;;4982830;28;20266;-79
2023/07/20 09:01:02;;;;;;;3.40;2.40;;;21.60;60.60;;;;;;4998438;28;20434;-78
2023/07/20 09:03:28;;;;;;;4.53;2.97;;;21.70;59.80;;;;;;4982581;28;20405;-79
2023/07/20 09:05:54;;;;;;;6.70;2.37;;;21.80;57.70;;;;;;4968950;28;20415;-77
2023/07/20 09:08:21;;;;;;;3.40;2.67;;;21.90;57.50;;;;;;4982646;28;20487;-79
2023/07/20 09:10:50;;;;;;;4.07;2.27;;;22.10;57.30;;;;;;4979080;28;20440;-77
2023/07/20 09:13:17;;;;;;;2.63;2.27;;;22.20;57.50;;;;;;4947304;28;20431;-77
2023/07/20 09:15:55;;;;;;;5.47;2.80;;;22.30;57.50;;;;;;4949277;28;20204;-78
2023/07/20 09:18:28;;;;;;;3.40;3.10;;;22.40;57.10;;;;;;4980263;28;20419;-79
2023/07/20 09:21:06;;;;;;;2.60;2.17;;;22.60;56.70;;;;;;4964954;28;20442;-77
2023/07/20 09:23:41;;;;;;;5.33;2.40;;;22.80;56.10;;;;;;4964509;28;20403;-79
2023/07/20 09:26:16;;;;;;;3.40;3.10;;;22.80;54.90;;;;;;4966765;28;20399;-79
2023/07/20 09:28:54;;;;;;;5.20;2.30;;;23.10;55.10;;;;;;4981719;28;20415;-79
2023/07/20 09:31:21;;;;;;;7.27;3.67;;;23.30;55.40;;;;;;4983084;28;20477;-79
2023/07/20 09:33:49;;;;;;;5.60;3.37;;;23.60;54.30;;;;;;4982230;28;20420;-79
2023/07/20 09:36:16;;;;;;;5.10;2.67;;;23.60;52.10;;;;;;4952965;28;20419;-78
2023/07/20 09:38:51;;;;;;;5.40;3.23;;;23.30;52.60;;;;;;4967652;28;20503;-77
2023/07/20 09:41:18;;;;;;;3.40;2.70;;;23.10;52.70;;;;;;4989766;28;20441;-78
2023/07/20 09:43:45;;;;;;;3.20;2.50;;;22.90;54.00;;;;;;5127640;23;20481;-81
2023/07/20 09:46:11;;;;;;;3.23;2.93;;;22.80;54.60;;;;;;5037822;28;20409;-77
2023/07/20 09:48:37;;;;;;;4.77;3.37;;;22.70;54.70;;;;;;5019869;28;20490;-79
2023/07/20 09:51:06;;;;;;;6.00;3.13;;;22.50;55.20;;;;;;5060747;23;20503;-77
2023/07/20 09:53:33;;;;;;;6.10;2.90;;;22.30;55.50;;;;;;5005598;28;20386;-77
2023/07/20 09:56:02;;;;;;;2.90;2.53;;;22.30;55.60;;;;;;5006579;28;20500;-80
2023/07/20 09:58:29;;;;;;;7.90;2.50;;;22.30;55.10;;;;;;5022381;28;20423;-78
2023/07/20 10:00:58;;;;;;;3.63;2.50;;;22.50;54.90;;;;;;5043175;23;20479;-79
2023/07/20 10:03:29;;;;;;;4.77;2.90;;;22.70;54.10;;;;;;4999017;28;20431;-78
2023/07/20 10:06:10;;;;;;;4.10;2.43;;;22.70;54.30;;;;;;4998645;28;20423;-77
2023/07/20 10:08:41;;;;;;;3.63;2.30;;;23.00;53.80;;;;;;4983178;28;20408;-77
2023/07/20 10:11:08;;;;;;;3.90;2.57;;;23.40;53.00;;;;;;5029735;28;20426;-78
2023/07/20 10:13:38;;;;;;;4.07;2.50;;;23.70;50.80;;;;;;5002948;28;20410;-80
2023/07/20 10:16:30;;;;;;;2.13;1.93;;;24.00;49.50;;;;;;5003217;28;20451;-78
2023/07/20 10:19:24;;;;;;;3.03;1.80;;;24.10;49.50;;;;;;5009131;28;20389;-79
2023/07/20 10:22:06;;;;;;;4.30;2.20;;;24.40;49.00;;;;;;5019014;28;20521;-79
2023/07/20 10:24:32;;;;;;;3.03;2.07;;;24.60;48.60;;;;;;5003451;28;20419;-79
2023/07/20 10:27:02;;;;;;;2.60;2.00;;;24.70;48.80;;;;;;4980638;28;20417;-80
2023/07/20 10:29:29;;;;;;;2.90;2.13;;;24.70;47.70;;;;;;4962360;28;20426;-78
2023/07/20 10:32:01;;;;;;;3.10;2.00;;;24.60;47.90;;;;;;4981051;28;20471;-80
2023/07/20 10:34:30;;;;;;;3.10;1.90;;;24.50;48.00;;;;;;4963665;28;20451;-79
2023/07/20 10:36:56;;;;;;;3.20;2.00;;;24.50;48.10;;;;;;4948122;28;20436;-79
2023/07/20 10:39:30;;;;;;;3.13;1.80;;;24.30;47.20;;;;;;4947534;29;20508;-80
2023/07/20 10:42:07;;;;;;;2.30;1.90;;;24.30;47.20;;;;;;4963798;28;20392;-79
2023/07/20 10:44:37;;;;;;;2.53;1.80;;;24.30;47.10;;;;;;4964069;28;20455;-79
2023/07/20 10:47:14;;;;;;;3.30;1.70;;;24.30;46.90;;;;;;4933573;28;20397;-80
2023/07/20 10:50:00;;;;;;;3.07;2.00;;;24.50;46.70;;;;;;4989547;23;20471;-80
2023/07/20 10:52:47;;;;;;;2.63;1.93;;;24.70;46.40;;;;;;5023041;28;20406;-78
2023/07/20 10:55:17;;;;;;;2.17;1.63;;;24.70;46.00;;;;;;5008287;28;20453;-77
2023/07/20 10:58:17;;;;;;;3.10;2.13;;;24.40;46.40;;;;;;5006380;28;20422;-80
2023/07/20 11:01:00;;;;;;;3.60;2.00;;;24.10;47.70;;;;;;5022888;28;20456;-79
2023/07/20 11:03:32;;;;;;;2.03;1.50;;;24.00;47.40;;;;;;5038430;28;20390;-79
2023/07/20 11:06:20;;;;;;;3.33;1.90;;;23.80;47.80;;;;;;5020812;28;20406;-79
2023/07/20 11:08:47;;;;;;;3.00;1.90;;;23.90;47.40;;;;;;5023798;28;20385;-77
2023/07/20 11:11:27;;;;;;;4.50;1.80;;;23.80;47.20;;;;;;5021286;28;20505;-77
2023/07/20 11:14:09;;;;;;;2.37;1.90;;;23.80;46.90;;;;;;5006275;28;20421;-79
2023/07/20 11:16:44;;;;;;;2.20;1.90;;;24.00;46.90;;;;;;5005668;28;20426;-80
2023/07/20 11:19:40;;;;;;;5.33;2.30;;;24.30;46.40;;;;;;5021518;28;20420;-77
2023/07/20 11:22:09;;;;;;;3.37;2.40;;;24.60;46.10;;;;;;5037661;28;20502;-79
2023/07/20 11:27:13;;;;;;;3.33;2.20;;;24.90;44.80;;;;;;5309921;23;20488;-80
2023/07/20 11:29:59;;;;;;;1.93;1.73;;;25.10;45.00;;;;;;4988030;28;20465;-80
2023/07/20 11:32:31;;;;;;;2.20;1.70;;;25.30;44.30;;;;;;5007462;28;20433;-77
2023/07/20 11:34:59;;;;;;;3.17;1.83;;;25.60;43.90;;;;;;5020659;28;20446;-77
2023/07/20 11:37:26;;;;;;;1.83;1.73;;;25.70;43.80;;;;;;4988068;28;20393;-78
2023/07/20 11:39:57;;;;;;;2.00;1.70;;;25.50;44.40;;;;;;5042751;28;20449;-80
2023/07/20 11:42:23;;;;;;;1.83;1.23;;;25.40;44.80;;;;;;5023947;28;20368;-79
2023/07/20 11:44:51;;;;;;;2.10;1.80;;;25.60;44.60;;;;;;5023803;28;20410;-79
2023/07/20 11:47:18;;;;;;;2.37;1.67;;;25.70;44.30;;;;;;5023368;28;20425;-79
2023/07/20 11:49:49;;;;;;;2.10;1.47;;;25.90;44.00;;;;;;5040382;28;20407;-77
2023/07/20 11:52:27;;;;;;;1.83;1.63;;;25.80;44.20;;;;;;5040633;28;20377;-79
2023/07/20 11:54:55;;;;;;;2.70;2.10;;;25.70;43.70;;;;;;5040679;28;20520;-79
2023/07/20 11:57:22;;;;;;;3.57;1.73;;;25.70;43.60;;;;;;5023996;28;20427;-79
2023/07/20 12:00:11;;;;;;;3.03;1.70;;;25.80;43.80;;;;;;5039232;28;20419;-78
2023/07/20 12:02:53;;;;;;;2.67;1.50;;;26.00;43.30;;;;;;5027482;28;20436;-80
2023/07/20 12:05:19;;;;;;;3.37;1.83;;;25.70;43.30;;;;;;5023530;28;20509;-80
2023/07/20 12:07:52;;;;;;;5.83;2.33;;;25.60;42.90;;;;;;5040395;28;20406;-81
2023/07/20 12:10:28;;;;;;;2.60;1.67;;;25.40;43.40;;;;;;5057219;28;20425;-80
2023/07/20 12:13:05;;;;;;;2.63;1.50;;;25.00;44.10;;;;;;5041347;28;20416;-80
2023/07/20 12:15:34;;;;;;;1.83;1.30;;;24.90;44.00;;;;;;5008328;28;20455;-78
2023/07/20 12:18:02;;;;;;;2.37;1.87;;;24.70;43.40;;;;;;5039982;28;20397;-78
2023/07/20 12:20:37;;;;;;;3.43;1.63;;;24.30;44.20;;;;;;5040816;28;20437;-79
2023/07/20 12:23:18;;;;;;;2.40;1.83;;;24.10;44.80;;;;;;5025190;28;20435;-79
2023/07/20 12:28:32;;;;;;;2.70;1.80;;;23.60;45.60;;;;;;5036007;28;20529;-79
2023/07/20 12:34:19;;;;;;;3.00;1.90;;;23.50;46.30;;;;;;4607740;23;20473;-81
2023/07/20 12:36:57;;;;;;;3.30;1.47;;;23.50;46.20;;;;;;4914397;29;20425;-79
2023/07/20 12:39:46;;;;;;;1.90;1.50;;;23.50;46.30;;;;;;4946585;28;20457;-78
2023/07/20 12:42:15;;;;;;;3.30;2.17;;;23.50;46.40;;;;;;4959368;29;20417;-79
2023/07/20 12:44:42;;;;;;;2.93;1.90;;;23.60;46.70;;;;;;4911611;29;20411;-79
2023/07/20 12:47:28;;;;;;;2.93;2.17;;;23.60;46.40;;;;;;4911929;29;20413;-80
2023/07/20 12:52:55;;;;;;;2.67;2.07;;;23.70;46.60;;;;;;5074299;23;20504;-80
2023/07/20 12:55:21;;;;;;;2.10;1.60;;;23.80;46.30;;;;;;4930200;29;20593;-78
2023/07/20 12:57:52;;;;;;;2.83;1.33;;;23.90;45.70;;;;;;4931205;28;20441;-82
2023/07/20 13:00:32;;;;;;;4.03;1.90;;;24.00;45.70;;;;;;4930913;29;20444;-81
2023/07/20 13:03:00;;;;;;;4.00;1.80;;;24.10;45.20;;;;;;4889979;28;20418;-83
2023/07/20 13:05:26;;;;;;;2.47;1.10;;;24.30;45.20;;;;;;4946282;28;20421;-81